sensor_id;sensor_type;location;lat;lon;timestamp;P1;durP1;ratioP1;P2;durP2;ratioP2
7753;SDS011;3921;42.266;23.122;2022-11-12T00:00:56;25.67;;;14.57;;
7753;SDS011;3921;42.266;23.122;2022-11-12T00:03:24;22.23;;;14.13;;
7753;SDS011;3921;42.266;23.122;2022-11-12T00:05:51;22.80;;;15.20;;
7753;SDS011;3921;42.266;23.122;2022-11-12T00:08:20;24.37;;;15.03;;
7753;SDS011;3921;42.266;23.122;2022-11-12T00:10:47;23.57;;;15.03;;
7753;SDS011;3921;42.266;23.122;2022-11-12T00:13:14;26.87;;;16.40;;
7753;SDS011;3921;42.266;23.122;2022-11-12T00:15:41;24.10;;;15.50;;
7753;SDS011;3921;42.266;23.122;2022-11-12T00:18:08;23.57;;;15.27;;
7753;SDS011;3921;42.266;23.122;2022-11-12T00:20:35;23.80;;;14.83;;
7753;SDS011;3921;42.266;23.122;2022-11-12T00:23:03;23.27;;;13.20;;
7753;SDS011;3921;42.266;23.122;2022-11-12T00:25:31;18.67;;;13.40;;
7753;SDS011;3921;42.266;23.122;2022-11-12T00:28:02;23.27;;;14.87;;
7753;SDS011;3921;42.266;23.122;2022-11-12T00:30:30;22.00;;;14.20;;
7753;SDS011;3921;42.266;23.122;2022-11-12T00:33:01;20.83;;;14.33;;
7753;SDS011;3921;42.266;23.122;2022-11-12T00:35:29;23.70;;;15.20;;
7753;SDS011;3921;42.266;23.122;2022-11-12T00:37:57;19.63;;;13.83;;
7753;SDS011;3921;42.266;23.122;2022-11-12T00:40:25;24.00;;;15.00;;
7753;SDS011;3921;42.266;23.122;2022-11-12T00:42:53;21.60;;;14.27;;
7753;SDS011;3921;42.266;23.122;2022-11-12T00:45:20;21.40;;;13.67;;
7753;SDS011;3921;42.266;23.122;2022-11-12T00:47:52;24.17;;;14.53;;
7753;SDS011;3921;42.266;23.122;2022-11-12T00:50:20;22.10;;;14.57;;
7753;SDS011;3921;42.266;23.122;2022-11-12T00:52:47;23.73;;;15.03;;
7753;SDS011;3921;42.266;23.122;2022-11-12T00:55:17;19.87;;;13.50;;
7753;SDS011;3921;42.266;23.122;2022-11-12T00:57:44;20.60;;;13.90;;
7753;SDS011;3921;42.266;23.122;2022-11-12T01:00:14;20.97;;;14.50;;
7753;SDS011;3921;42.266;23.122;2022-11-12T01:02:43;23.43;;;14.63;;
7753;SDS011;3921;42.266;23.122;2022-11-12T01:05:10;22.43;;;13.83;;
7753;SDS011;3921;42.266;23.122;2022-11-12T01:07:37;21.90;;;14.43;;
7753;SDS011;3921;42.266;23.122;2022-11-12T01:10:07;22.53;;;13.67;;
7753;SDS011;3921;42.266;23.122;2022-11-12T01:12:38;21.97;;;14.00;;
7753;SDS011;3921;42.266;23.122;2022-11-12T01:15:05;24.13;;;15.50;;
7753;SDS011;3921;42.266;23.122;2022-11-12T01:17:34;22.47;;;13.90;;
7753;SDS011;3921;42.266;23.122;2022-11-12T01:20:01;22.13;;;14.57;;
7753;SDS011;3921;42.266;23.122;2022-11-12T01:22:28;21.17;;;13.70;;
7753;SDS011;3921;42.266;23.122;2022-11-12T01:24:55;23.80;;;13.87;;
7753;SDS011;3921;42.266;23.122;2022-11-12T01:27:22;25.37;;;14.10;;
7753;SDS011;3921;42.266;23.122;2022-11-12T01:29:49;20.80;;;13.30;;
7753;SDS011;3921;42.266;23.122;2022-11-12T01:32:16;22.83;;;14.60;;
7753;SDS011;3921;42.266;23.122;2022-11-12T01:34:44;23.90;;;14.07;;
7753;SDS011;3921;42.266;23.122;2022-11-12T01:37:12;21.20;;;13.90;;
7753;SDS011;3921;42.266;23.122;2022-11-12T01:39:43;22.57;;;13.87;;
7753;SDS011;3921;42.266;23.122;2022-11-12T01:42:11;21.40;;;13.17;;
7753;SDS011;3921;42.266;23.122;2022-11-12T01:44:40;25.33;;;13.63;;
7753;SDS011;3921;42.266;23.122;2022-11-12T01:47:10;20.77;;;13.23;;
7753;SDS011;3921;42.266;23.122;2022-11-12T01:49:43;23.50;;;13.53;;
7753;SDS011;3921;42.266;23.122;2022-11-12T01:52:16;20.13;;;13.50;;
7753;SDS011;3921;42.266;23.122;2022-11-12T01:54:46;21.07;;;13.03;;
7753;SDS011;3921;42.266;23.122;2022-11-12T01:57:18;19.43;;;13.60;;
7753;SDS011;3921;42.266;23.122;2022-11-12T01:59:49;20.63;;;12.73;;
7753;SDS011;3921;42.266;23.122;2022-11-12T02:02:19;18.80;;;12.70;;
7753;SDS011;3921;42.266;23.122;2022-11-12T02:04:48;18.80;;;12.53;;
7753;SDS011;3921;42.266;23.122;2022-11-12T02:07:16;20.50;;;12.13;;
7753;SDS011;3921;42.266;23.122;2022-11-12T02:09:45;17.80;;;11.70;;
7753;SDS011;3921;42.266;23.122;2022-11-12T02:12:12;16.40;;;9.97;;
7753;SDS011;3921;42.266;23.122;2022-11-12T02:15:00;16.10;;;10.07;;
7753;SDS011;3921;42.266;23.122;2022-11-12T02:17:27;14.57;;;9.57;;
7753;SDS011;3921;42.266;23.122;2022-11-12T02:19:58;19.97;;;11.30;;
7753;SDS011;3921;42.266;23.122;2022-11-12T02:22:27;18.63;;;12.07;;
7753;SDS011;3921;42.266;23.122;2022-11-12T02:24:54;19.10;;;11.97;;
7753;SDS011;3921;42.266;23.122;2022-11-12T02:27:21;19.60;;;12.23;;
7753;SDS011;3921;42.266;23.122;2022-11-12T02:29:49;20.30;;;12.37;;
7753;SDS011;3921;42.266;23.122;2022-11-12T02:32:16;18.07;;;11.63;;
7753;SDS011;3921;42.266;23.122;2022-11-12T02:34:43;19.33;;;11.97;;
7753;SDS011;3921;42.266;23.122;2022-11-12T02:37:11;18.50;;;11.03;;
7753;SDS011;3921;42.266;23.122;2022-11-12T02:39:39;16.40;;;9.60;;
7753;SDS011;3921;42.266;23.122;2022-11-12T02:42:09;16.13;;;10.93;;
7753;SDS011;3921;42.266;23.122;2022-11-12T02:44:36;14.03;;;9.20;;
7753;SDS011;3921;42.266;23.122;2022-11-12T02:47:03;14.23;;;9.33;;
7753;SDS011;3921;42.266;23.122;2022-11-12T02:49:30;12.40;;;8.50;;
7753;SDS011;3921;42.266;23.122;2022-11-12T02:51:57;12.63;;;8.60;;
7753;SDS011;3921;42.266;23.122;2022-11-12T02:54:24;15.53;;;10.37;;
7753;SDS011;3921;42.266;23.122;2022-11-12T02:56:53;16.47;;;10.73;;
7753;SDS011;3921;42.266;23.122;2022-11-12T02:59:20;18.47;;;11.30;;
7753;SDS011;3921;42.266;23.122;2022-11-12T03:01:47;14.20;;;9.90;;
7753;SDS011;3921;42.266;23.122;2022-11-12T03:04:14;13.13;;;8.80;;
7753;SDS011;3921;42.266;23.122;2022-11-12T03:06:41;14.50;;;8.77;;
7753;SDS011;3921;42.266;23.122;2022-11-12T03:09:13;11.40;;;7.67;;
7753;SDS011;3921;42.266;23.122;2022-11-12T03:11:40;10.93;;;7.60;;
7753;SDS011;3921;42.266;23.122;2022-11-12T03:14:09;8.93;;;6.73;;
7753;SDS011;3921;42.266;23.122;2022-11-12T03:16:35;10.83;;;7.00;;
7753;SDS011;3921;42.266;23.122;2022-11-12T03:19:02;8.67;;;5.77;;
7753;SDS011;3921;42.266;23.122;2022-11-12T03:21:29;7.47;;;5.37;;
7753;SDS011;3921;42.266;23.122;2022-11-12T03:23:56;7.70;;;4.83;;
7753;SDS011;3921;42.266;23.122;2022-11-12T03:26:23;5.57;;;3.97;;
7753;SDS011;3921;42.266;23.122;2022-11-12T03:28:50;5.80;;;3.93;;
7753;SDS011;3921;42.266;23.122;2022-11-12T03:31:19;5.03;;;4.00;;
7753;SDS011;3921;42.266;23.122;2022-11-12T03:33:46;4.33;;;3.63;;
7753;SDS011;3921;42.266;23.122;2022-11-12T03:36:13;4.60;;;4.03;;
7753;SDS011;3921;42.266;23.122;2022-11-12T03:38:40;5.27;;;4.30;;
7753;SDS011;3921;42.266;23.122;2022-11-12T03:41:07;6.10;;;4.43;;
7753;SDS011;3921;42.266;23.122;2022-11-12T03:43:36;5.20;;;4.50;;
7753;SDS011;3921;42.266;23.122;2022-11-12T03:46:03;5.93;;;4.03;;
7753;SDS011;3921;42.266;23.122;2022-11-12T03:48:33;4.67;;;4.10;;
7753;SDS011;3921;42.266;23.122;2022-11-12T03:51:00;5.13;;;4.00;;
7753;SDS011;3921;42.266;23.122;2022-11-12T03:53:28;6.03;;;4.10;;
7753;SDS011;3921;42.266;23.122;2022-11-12T03:55:55;6.07;;;4.43;;
7753;SDS011;3921;42.266;23.122;2022-11-12T03:58:22;29.67;;;5.60;;
7753;SDS011;3921;42.266;23.122;2022-11-12T04:00:49;7.63;;;4.33;;
7753;SDS011;3921;42.266;23.122;2022-11-12T04:03:17;7.83;;;4.60;;
7753;SDS011;3921;42.266;23.122;2022-11-12T04:05:45;6.47;;;5.10;;
7753;SDS011;3921;42.266;23.122;2022-11-12T04:08:29;6.33;;;4.63;;
7753;SDS011;3921;42.266;23.122;2022-11-12T04:11:04;5.57;;;4.03;;
7753;SDS011;3921;42.266;23.122;2022-11-12T04:13:33;5.70;;;4.37;;
7753;SDS011;3921;42.266;23.122;2022-11-12T04:16:03;5.47;;;4.20;;
7753;SDS011;3921;42.266;23.122;2022-11-12T04:18:49;4.63;;;3.83;;
7753;SDS011;3921;42.266;23.122;2022-11-12T04:21:37;5.23;;;4.10;;
7753;SDS011;3921;42.266;23.122;2022-11-12T04:24:22;5.57;;;3.80;;
7753;SDS011;3921;42.266;23.122;2022-11-12T04:27:11;5.83;;;4.10;;
7753;SDS011;3921;42.266;23.122;2022-11-12T04:29:39;4.33;;;3.93;;
7753;SDS011;3921;42.266;23.122;2022-11-12T04:32:24;5.00;;;4.30;;
7753;SDS011;3921;42.266;23.122;2022-11-12T04:34:51;7.03;;;4.37;;
7753;SDS011;3921;42.266;23.122;2022-11-12T04:37:20;5.80;;;4.27;;
7753;SDS011;3921;42.266;23.122;2022-11-12T04:39:49;6.20;;;4.17;;
7753;SDS011;3921;42.266;23.122;2022-11-12T04:42:16;5.80;;;3.90;;
7753;SDS011;3921;42.266;23.122;2022-11-12T04:45:01;8.37;;;4.20;;
7753;SDS011;3921;42.266;23.122;2022-11-12T04:47:30;8.03;;;4.50;;
7753;SDS011;3921;42.266;23.122;2022-11-12T04:49:59;9.93;;;4.93;;
7753;SDS011;3921;42.266;23.122;2022-11-12T04:52:28;6.70;;;4.30;;
7753;SDS011;3921;42.266;23.122;2022-11-12T04:54:56;7.17;;;4.17;;
7753;SDS011;3921;42.266;23.122;2022-11-12T04:57:25;4.80;;;3.97;;
7753;SDS011;3921;42.266;23.122;2022-11-12T04:59:52;6.30;;;3.97;;
7753;SDS011;3921;42.266;23.122;2022-11-12T05:02:20;5.10;;;4.30;;
7753;SDS011;3921;42.266;23.122;2022-11-12T05:04:48;5.53;;;4.37;;
7753;SDS011;3921;42.266;23.122;2022-11-12T05:07:15;9.87;;;4.97;;
7753;SDS011;3921;42.266;23.122;2022-11-12T05:09:45;8.60;;;4.80;;
7753;SDS011;3921;42.266;23.122;2022-11-12T05:12:16;6.57;;;4.80;;
7753;SDS011;3921;42.266;23.122;2022-11-12T05:14:43;12.37;;;6.57;;
7753;SDS011;3921;42.266;23.122;2022-11-12T05:17:10;13.47;;;7.20;;
7753;SDS011;3921;42.266;23.122;2022-11-12T05:19:39;8.33;;;6.20;;
7753;SDS011;3921;42.266;23.122;2022-11-12T05:22:06;5.93;;;4.90;;
7753;SDS011;3921;42.266;23.122;2022-11-12T05:24:35;18.23;;;5.80;;
7753;SDS011;3921;42.266;23.122;2022-11-12T05:27:06;5.50;;;4.80;;
7753;SDS011;3921;42.266;23.122;2022-11-12T05:29:36;7.70;;;4.87;;
7753;SDS011;3921;42.266;23.122;2022-11-12T05:32:03;7.70;;;4.77;;
7753;SDS011;3921;42.266;23.122;2022-11-12T05:34:31;6.93;;;5.23;;
7753;SDS011;3921;42.266;23.122;2022-11-12T05:36:59;6.30;;;4.73;;
7753;SDS011;3921;42.266;23.122;2022-11-12T05:39:27;5.60;;;4.40;;
7753;SDS011;3921;42.266;23.122;2022-11-12T05:41:54;5.70;;;4.07;;
7753;SDS011;3921;42.266;23.122;2022-11-12T05:44:23;6.20;;;5.03;;
7753;SDS011;3921;42.266;23.122;2022-11-12T05:46:50;6.23;;;4.90;;
7753;SDS011;3921;42.266;23.122;2022-11-12T05:49:17;8.80;;;5.10;;
7753;SDS011;3921;42.266;23.122;2022-11-12T05:51:44;6.20;;;4.97;;
7753;SDS011;3921;42.266;23.122;2022-11-12T05:54:19;6.43;;;4.97;;
7753;SDS011;3921;42.266;23.122;2022-11-12T05:56:50;8.03;;;5.23;;
7753;SDS011;3921;42.266;23.122;2022-11-12T05:59:17;6.43;;;4.73;;
7753;SDS011;3921;42.266;23.122;2022-11-12T06:01:46;7.63;;;4.60;;
7753;SDS011;3921;42.266;23.122;2022-11-12T06:04:13;5.57;;;4.50;;
7753;SDS011;3921;42.266;23.122;2022-11-12T06:06:41;5.93;;;4.17;;
7753;SDS011;3921;42.266;23.122;2022-11-12T06:09:10;5.90;;;4.47;;
7753;SDS011;3921;42.266;23.122;2022-11-12T06:11:47;5.77;;;4.73;;
7753;SDS011;3921;42.266;23.122;2022-11-12T06:14:14;6.43;;;4.73;;
7753;SDS011;3921;42.266;23.122;2022-11-12T06:16:58;6.67;;;4.47;;
7753;SDS011;3921;42.266;23.122;2022-11-12T06:19:28;6.13;;;4.87;;
7753;SDS011;3921;42.266;23.122;2022-11-12T06:29:44;4.90;;;4.20;;
7753;SDS011;3921;42.266;23.122;2022-11-12T06:42:29;7.07;;;4.93;;
7753;SDS011;3921;42.266;23.122;2022-11-12T06:45:10;5.90;;;4.53;;
7753;SDS011;3921;42.266;23.122;2022-11-12T06:48:11;7.17;;;5.17;;
7753;SDS011;3921;42.266;23.122;2022-11-12T06:58:00;7.17;;;5.17;;
7753;SDS011;3921;42.266;23.122;2022-11-12T07:00:40;10.20;;;5.43;;
7753;SDS011;3921;42.266;23.122;2022-11-12T07:03:38;8.43;;;5.40;;
7753;SDS011;3921;42.266;23.122;2022-11-12T07:06:11;9.00;;;5.73;;
7753;SDS011;3921;42.266;23.122;2022-11-12T07:11:55;21.40;;;6.77;;
7753;SDS011;3921;42.266;23.122;2022-11-12T07:14:44;13.27;;;6.33;;
7753;SDS011;3921;42.266;23.122;2022-11-12T07:17:16;9.97;;;5.90;;
7753;SDS011;3921;42.266;23.122;2022-11-12T07:19:59;7.07;;;5.00;;
7753;SDS011;3921;42.266;23.122;2022-11-12T07:22:26;7.50;;;5.57;;
7753;SDS011;3921;42.266;23.122;2022-11-12T07:25:04;7.33;;;5.37;;
7753;SDS011;3921;42.266;23.122;2022-11-12T07:30:29;55.70;;;7.97;;
7753;SDS011;3921;42.266;23.122;2022-11-12T07:32:56;34.10;;;9.50;;
7753;SDS011;3921;42.266;23.122;2022-11-12T07:35:23;26.70;;;6.73;;
7753;SDS011;3921;42.266;23.122;2022-11-12T07:46:08;9.60;;;4.70;;
7753;SDS011;3921;42.266;23.122;2022-11-12T07:48:42;10.07;;;4.70;;
7753;SDS011;3921;42.266;23.122;2022-11-12T07:51:23;7.97;;;4.50;;
7753;SDS011;3921;42.266;23.122;2022-11-12T07:53:55;47.87;;;6.93;;
7753;SDS011;3921;42.266;23.122;2022-11-12T07:56:24;6.37;;;4.10;;
7753;SDS011;3921;42.266;23.122;2022-11-12T07:58:56;7.37;;;4.50;;
7753;SDS011;3921;42.266;23.122;2022-11-12T08:01:28;6.97;;;4.20;;
7753;SDS011;3921;42.266;23.122;2022-11-12T08:04:00;24.53;;;5.60;;
7753;SDS011;3921;42.266;23.122;2022-11-12T08:06:39;8.30;;;4.20;;
7753;SDS011;3921;42.266;23.122;2022-11-12T08:09:09;49.63;;;6.53;;
7753;SDS011;3921;42.266;23.122;2022-11-12T08:11:36;12.63;;;4.60;;
7753;SDS011;3921;42.266;23.122;2022-11-12T08:14:04;25.10;;;4.90;;
7753;SDS011;3921;42.266;23.122;2022-11-12T08:16:42;10.00;;;4.27;;
7753;SDS011;3921;42.266;23.122;2022-11-12T08:19:17;19.13;;;5.47;;
7753;SDS011;3921;42.266;23.122;2022-11-12T08:21:44;106.27;;;11.23;;
7753;SDS011;3921;42.266;23.122;2022-11-12T08:24:26;21.93;;;6.43;;
7753;SDS011;3921;42.266;23.122;2022-11-12T08:27:00;30.77;;;6.13;;
7753;SDS011;3921;42.266;23.122;2022-11-12T08:29:30;10.73;;;4.60;;
7753;SDS011;3921;42.266;23.122;2022-11-12T08:32:05;10.07;;;4.70;;
7753;SDS011;3921;42.266;23.122;2022-11-12T08:34:35;13.60;;;4.37;;
7753;SDS011;3921;42.266;23.122;2022-11-12T08:37:05;10.90;;;4.77;;
7753;SDS011;3921;42.266;23.122;2022-11-12T08:39:40;6.50;;;4.47;;
7753;SDS011;3921;42.266;23.122;2022-11-12T08:42:17;64.60;;;7.90;;
7753;SDS011;3921;42.266;23.122;2022-11-12T08:44:49;23.63;;;6.20;;
7753;SDS011;3921;42.266;23.122;2022-11-12T08:50:23;17.97;;;4.33;;
7753;SDS011;3921;42.266;23.122;2022-11-12T08:53:03;13.83;;;4.00;;
7753;SDS011;3921;42.266;23.122;2022-11-12T08:58:25;15.63;;;4.47;;
7753;SDS011;3921;42.266;23.122;2022-11-12T09:00:55;15.17;;;4.33;;
7753;SDS011;3921;42.266;23.122;2022-11-12T09:03:26;5.60;;;3.87;;
7753;SDS011;3921;42.266;23.122;2022-11-12T09:06:00;27.57;;;5.67;;
7753;SDS011;3921;42.266;23.122;2022-11-12T09:11:22;8.60;;;3.83;;
7753;SDS011;3921;42.266;23.122;2022-11-12T09:13:53;9.00;;;3.43;;
7753;SDS011;3921;42.266;23.122;2022-11-12T09:16:38;6.90;;;3.63;;
7753;SDS011;3921;42.266;23.122;2022-11-12T09:19:33;7.53;;;3.60;;
7753;SDS011;3921;42.266;23.122;2022-11-12T09:22:07;12.13;;;3.60;;
7753;SDS011;3921;42.266;23.122;2022-11-12T09:24:37;13.90;;;4.30;;
7753;SDS011;3921;42.266;23.122;2022-11-12T09:27:04;10.83;;;3.80;;
7753;SDS011;3921;42.266;23.122;2022-11-12T09:29:34;12.27;;;3.77;;
7753;SDS011;3921;42.266;23.122;2022-11-12T09:32:03;4.67;;;3.20;;
7753;SDS011;3921;42.266;23.122;2022-11-12T09:37:01;8.47;;;3.90;;
7753;SDS011;3921;42.266;23.122;2022-11-12T09:39:31;11.53;;;3.77;;
7753;SDS011;3921;42.266;23.122;2022-11-12T09:41:59;8.60;;;3.17;;
7753;SDS011;3921;42.266;23.122;2022-11-12T09:44:32;17.50;;;3.47;;
7753;SDS011;3921;42.266;23.122;2022-11-12T09:47:03;7.33;;;2.87;;
7753;SDS011;3921;42.266;23.122;2022-11-12T09:49:42;6.20;;;2.90;;
7753;SDS011;3921;42.266;23.122;2022-11-12T09:52:24;6.83;;;3.93;;
7753;SDS011;3921;42.266;23.122;2022-11-12T09:55:00;3.70;;;3.07;;
7753;SDS011;3921;42.266;23.122;2022-11-12T09:57:42;4.93;;;3.00;;
7753;SDS011;3921;42.266;23.122;2022-11-12T10:00:12;3.43;;;3.03;;
7753;SDS011;3921;42.266;23.122;2022-11-12T10:02:51;4.10;;;3.20;;
7753;SDS011;3921;42.266;23.122;2022-11-12T10:05:28;5.47;;;3.50;;
7753;SDS011;3921;42.266;23.122;2022-11-12T10:08:05;4.20;;;2.33;;
7753;SDS011;3921;42.266;23.122;2022-11-12T10:10:47;3.13;;;2.53;;
7753;SDS011;3921;42.266;23.122;2022-11-12T10:13:24;8.60;;;2.70;;
7753;SDS011;3921;42.266;23.122;2022-11-12T10:16:10;6.77;;;2.50;;
7753;SDS011;3921;42.266;23.122;2022-11-12T10:19:11;12.30;;;2.70;;
7753;SDS011;3921;42.266;23.122;2022-11-12T10:21:59;13.37;;;2.90;;
7753;SDS011;3921;42.266;23.122;2022-11-12T10:24:37;7.73;;;2.67;;
7753;SDS011;3921;42.266;23.122;2022-11-12T10:27:12;4.43;;;2.40;;
7753;SDS011;3921;42.266;23.122;2022-11-12T10:29:45;9.57;;;2.60;;
7753;SDS011;3921;42.266;23.122;2022-11-12T10:32:17;2.87;;;2.10;;
7753;SDS011;3921;42.266;23.122;2022-11-12T10:34:44;5.70;;;2.57;;
7753;SDS011;3921;42.266;23.122;2022-11-12T10:37:13;6.40;;;2.27;;
7753;SDS011;3921;42.266;23.122;2022-11-12T10:39:45;33.57;;;4.87;;
7753;SDS011;3921;42.266;23.122;2022-11-12T10:42:15;5.97;;;3.00;;
7753;SDS011;3921;42.266;23.122;2022-11-12T10:44:46;7.37;;;2.70;;
7753;SDS011;3921;42.266;23.122;2022-11-12T10:50:24;26.57;;;4.10;;
7753;SDS011;3921;42.266;23.122;2022-11-12T10:52:57;2.67;;;2.10;;
7753;SDS011;3921;42.266;23.122;2022-11-12T10:55:28;20.73;;;3.13;;
7753;SDS011;3921;42.266;23.122;2022-11-12T10:58:10;9.97;;;2.50;;
7753;SDS011;3921;42.266;23.122;2022-11-12T11:00:52;6.70;;;2.40;;
7753;SDS011;3921;42.266;23.122;2022-11-12T11:03:32;5.60;;;2.17;;
7753;SDS011;3921;42.266;23.122;2022-11-12T11:06:02;12.60;;;2.73;;
7753;SDS011;3921;42.266;23.122;2022-11-12T11:08:39;5.80;;;2.87;;
7753;SDS011;3921;42.266;23.122;2022-11-12T11:11:17;8.87;;;4.40;;
7753;SDS011;3921;42.266;23.122;2022-11-12T11:13:48;15.13;;;4.90;;
7753;SDS011;3921;42.266;23.122;2022-11-12T11:16:21;5.93;;;2.53;;
7753;SDS011;3921;42.266;23.122;2022-11-12T11:18:53;5.83;;;2.70;;
7753;SDS011;3921;42.266;23.122;2022-11-12T11:24:20;3.73;;;2.70;;
7753;SDS011;3921;42.266;23.122;2022-11-12T11:26:55;5.07;;;2.23;;
7753;SDS011;3921;42.266;23.122;2022-11-12T11:32:24;9.90;;;2.17;;
7753;SDS011;3921;42.266;23.122;2022-11-12T11:35:26;4.10;;;1.80;;
7753;SDS011;3921;42.266;23.122;2022-11-12T11:38:15;5.63;;;2.10;;
7753;SDS011;3921;42.266;23.122;2022-11-12T11:41:14;8.80;;;2.27;;
7753;SDS011;3921;42.266;23.122;2022-11-12T11:43:57;3.90;;;2.03;;
7753;SDS011;3921;42.266;23.122;2022-11-12T11:46:42;6.70;;;2.40;;
7753;SDS011;3921;42.266;23.122;2022-11-12T11:49:32;9.07;;;2.33;;
7753;SDS011;3921;42.266;23.122;2022-11-12T11:55:15;4.57;;;1.67;;
7753;SDS011;3921;42.266;23.122;2022-11-12T11:57:56;6.87;;;1.93;;
7753;SDS011;3921;42.266;23.122;2022-11-12T12:00:34;2.53;;;1.40;;
7753;SDS011;3921;42.266;23.122;2022-11-12T12:03:16;7.23;;;2.53;;
7753;SDS011;3921;42.266;23.122;2022-11-12T12:08:47;3.73;;;1.90;;
7753;SDS011;3921;42.266;23.122;2022-11-12T12:11:25;2.17;;;1.97;;
7753;SDS011;3921;42.266;23.122;2022-11-12T12:14:00;4.30;;;2.23;;
7753;SDS011;3921;42.266;23.122;2022-11-12T12:16:39;3.13;;;1.87;;
7753;SDS011;3921;42.266;23.122;2022-11-12T12:19:19;8.07;;;2.10;;
7753;SDS011;3921;42.266;23.122;2022-11-12T12:21:59;3.13;;;1.83;;
7753;SDS011;3921;42.266;23.122;2022-11-12T12:24:31;5.53;;;3.03;;
7753;SDS011;3921;42.266;23.122;2022-11-12T12:27:13;6.47;;;3.60;;
7753;SDS011;3921;42.266;23.122;2022-11-12T12:29:48;3.50;;;2.10;;
7753;SDS011;3921;42.266;23.122;2022-11-12T12:32:22;9.60;;;2.60;;
7753;SDS011;3921;42.266;23.122;2022-11-12T12:34:57;4.83;;;2.00;;
7753;SDS011;3921;42.266;23.122;2022-11-12T12:37:30;5.67;;;1.87;;
7753;SDS011;3921;42.266;23.122;2022-11-12T12:40:04;6.37;;;2.00;;
7753;SDS011;3921;42.266;23.122;2022-11-12T12:42:43;4.23;;;3.20;;
7753;SDS011;3921;42.266;23.122;2022-11-12T12:45:22;6.67;;;2.60;;
7753;SDS011;3921;42.266;23.122;2022-11-12T12:47:59;4.47;;;2.20;;
7753;SDS011;3921;42.266;23.122;2022-11-12T12:50:30;2.90;;;2.03;;
7753;SDS011;3921;42.266;23.122;2022-11-12T12:52:59;4.13;;;2.20;;
7753;SDS011;3921;42.266;23.122;2022-11-12T12:55:33;2.83;;;1.90;;
7753;SDS011;3921;42.266;23.122;2022-11-12T12:58:08;3.83;;;2.23;;
7753;SDS011;3921;42.266;23.122;2022-11-12T13:00:45;4.23;;;1.97;;
7753;SDS011;3921;42.266;23.122;2022-11-12T13:06:20;13.93;;;2.33;;
7753;SDS011;3921;42.266;23.122;2022-11-12T13:08:58;7.70;;;1.80;;
7753;SDS011;3921;42.266;23.122;2022-11-12T13:11:49;12.97;;;2.23;;
7753;SDS011;3921;42.266;23.122;2022-11-12T13:17:52;4.10;;;1.80;;
7753;SDS011;3921;42.266;23.122;2022-11-12T13:20:31;6.37;;;1.80;;
7753;SDS011;3921;42.266;23.122;2022-11-12T13:23:09;1.70;;;1.60;;
7753;SDS011;3921;42.266;23.122;2022-11-12T13:29:37;11.67;;;3.73;;
7753;SDS011;3921;42.266;23.122;2022-11-12T13:35:20;4.97;;;1.60;;
7753;SDS011;3921;42.266;23.122;2022-11-12T13:37:53;9.63;;;2.07;;
7753;SDS011;3921;42.266;23.122;2022-11-12T13:40:25;2.77;;;1.40;;
7753;SDS011;3921;42.266;23.122;2022-11-12T13:46:14;3.80;;;1.30;;
7753;SDS011;3921;42.266;23.122;2022-11-12T13:49:09;2.17;;;1.30;;
7753;SDS011;3921;42.266;23.122;2022-11-12T13:51:41;5.03;;;2.10;;
7753;SDS011;3921;42.266;23.122;2022-11-12T13:57:13;2.90;;;1.90;;
7753;SDS011;3921;42.266;23.122;2022-11-12T13:59:46;1.53;;;1.40;;
7753;SDS011;3921;42.266;23.122;2022-11-12T14:02:46;1.97;;;1.53;;
7753;SDS011;3921;42.266;23.122;2022-11-12T14:05:10;1.47;;;1.30;;
7753;SDS011;3921;42.266;23.122;2022-11-12T14:07:42;3.80;;;1.40;;
7753;SDS011;3921;42.266;23.122;2022-11-12T14:10:20;3.30;;;1.70;;
7753;SDS011;3921;42.266;23.122;2022-11-12T14:13:01;6.80;;;1.87;;
7753;SDS011;3921;42.266;23.122;2022-11-12T14:15:46;18.00;;;2.33;;
7753;SDS011;3921;42.266;23.122;2022-11-12T14:18:25;1.60;;;1.47;;
7753;SDS011;3921;42.266;23.122;2022-11-12T14:21:03;3.57;;;1.47;;
7753;SDS011;3921;42.266;23.122;2022-11-12T14:23:32;3.37;;;1.47;;
7753;SDS011;3921;42.266;23.122;2022-11-12T14:26:03;3.43;;;2.10;;
7753;SDS011;3921;42.266;23.122;2022-11-12T14:28:31;2.47;;;1.90;;
7753;SDS011;3921;42.266;23.122;2022-11-12T14:31:03;2.47;;;1.20;;
7753;SDS011;3921;42.266;23.122;2022-11-12T14:33:37;1.80;;;1.50;;
7753;SDS011;3921;42.266;23.122;2022-11-12T14:36:04;3.53;;;1.40;;
7753;SDS011;3921;42.266;23.122;2022-11-12T14:38:37;2.57;;;1.30;;
7753;SDS011;3921;42.266;23.122;2022-11-12T14:41:08;1.30;;;1.20;;
7753;SDS011;3921;42.266;23.122;2022-11-12T14:43:37;4.30;;;1.33;;
7753;SDS011;3921;42.266;23.122;2022-11-12T14:46:19;2.03;;;1.07;;
7753;SDS011;3921;42.266;23.122;2022-11-12T14:48:50;3.47;;;1.30;;
7753;SDS011;3921;42.266;23.122;2022-11-12T14:51:21;3.60;;;1.40;;
7753;SDS011;3921;42.266;23.122;2022-11-12T14:53:52;2.73;;;1.57;;
7753;SDS011;3921;42.266;23.122;2022-11-12T14:56:23;4.40;;;2.30;;
7753;SDS011;3921;42.266;23.122;2022-11-12T14:58:56;2.43;;;1.40;;
7753;SDS011;3921;42.266;23.122;2022-11-12T15:01:26;1.73;;;1.60;;
7753;SDS011;3921;42.266;23.122;2022-11-12T15:04:04;4.23;;;2.40;;
7753;SDS011;3921;42.266;23.122;2022-11-12T15:06:49;1.80;;;1.53;;
7753;SDS011;3921;42.266;23.122;2022-11-12T15:09:18;2.60;;;1.43;;
7753;SDS011;3921;42.266;23.122;2022-11-12T15:11:56;2.40;;;1.50;;
7753;SDS011;3921;42.266;23.122;2022-11-12T15:14:23;3.33;;;1.60;;
7753;SDS011;3921;42.266;23.122;2022-11-12T15:16:52;2.57;;;1.80;;
7753;SDS011;3921;42.266;23.122;2022-11-12T15:19:20;3.00;;;2.23;;
7753;SDS011;3921;42.266;23.122;2022-11-12T15:21:50;4.57;;;3.80;;
7753;SDS011;3921;42.266;23.122;2022-11-12T15:24:23;2.80;;;2.60;;
7753;SDS011;3921;42.266;23.122;2022-11-12T15:26:51;2.77;;;2.07;;
7753;SDS011;3921;42.266;23.122;2022-11-12T15:29:24;2.83;;;2.53;;
7753;SDS011;3921;42.266;23.122;2022-11-12T15:31:56;5.50;;;2.93;;
7753;SDS011;3921;42.266;23.122;2022-11-12T15:34:27;6.20;;;3.37;;
7753;SDS011;3921;42.266;23.122;2022-11-12T15:36:57;4.77;;;2.90;;
7753;SDS011;3921;42.266;23.122;2022-11-12T15:39:25;3.20;;;2.30;;
7753;SDS011;3921;42.266;23.122;2022-11-12T15:41:58;3.47;;;2.37;;
7753;SDS011;3921;42.266;23.122;2022-11-12T15:44:30;3.33;;;2.13;;
7753;SDS011;3921;42.266;23.122;2022-11-12T15:47:01;3.93;;;1.80;;
7753;SDS011;3921;42.266;23.122;2022-11-12T15:49:28;1.83;;;1.70;;
7753;SDS011;3921;42.266;23.122;2022-11-12T15:51:55;3.30;;;2.10;;
7753;SDS011;3921;42.266;23.122;2022-11-12T15:54:22;4.97;;;2.27;;
7753;SDS011;3921;42.266;23.122;2022-11-12T15:56:49;4.50;;;2.70;;
7753;SDS011;3921;42.266;23.122;2022-11-12T15:59:17;2.57;;;2.30;;
7753;SDS011;3921;42.266;23.122;2022-11-12T16:01:44;6.17;;;3.20;;
7753;SDS011;3921;42.266;23.122;2022-11-12T16:04:13;2.57;;;1.97;;
7753;SDS011;3921;42.266;23.122;2022-11-12T16:06:40;4.13;;;2.70;;
7753;SDS011;3921;42.266;23.122;2022-11-12T16:09:07;4.27;;;2.87;;
7753;SDS011;3921;42.266;23.122;2022-11-12T16:11:34;3.60;;;2.60;;
7753;SDS011;3921;42.266;23.122;2022-11-12T16:14:01;3.03;;;1.97;;
7753;SDS011;3921;42.266;23.122;2022-11-12T16:16:30;3.80;;;2.50;;
7753;SDS011;3921;42.266;23.122;2022-11-12T16:18:57;2.83;;;2.10;;
7753;SDS011;3921;42.266;23.122;2022-11-12T16:21:25;15.17;;;3.10;;
7753;SDS011;3921;42.266;23.122;2022-11-12T16:23:52;4.03;;;2.47;;
7753;SDS011;3921;42.266;23.122;2022-11-12T16:26:21;4.53;;;2.10;;
7753;SDS011;3921;42.266;23.122;2022-11-12T16:28:58;2.30;;;2.00;;
7753;SDS011;3921;42.266;23.122;2022-11-12T16:31:25;3.67;;;2.10;;
7753;SDS011;3921;42.266;23.122;2022-11-12T16:33:52;4.27;;;2.77;;
7753;SDS011;3921;42.266;23.122;2022-11-12T16:36:19;3.07;;;2.30;;
7753;SDS011;3921;42.266;23.122;2022-11-12T16:38:49;3.70;;;3.10;;
7753;SDS011;3921;42.266;23.122;2022-11-12T16:41:16;3.93;;;3.03;;
7753;SDS011;3921;42.266;23.122;2022-11-12T16:43:43;4.97;;;3.30;;
7753;SDS011;3921;42.266;23.122;2022-11-12T16:46:14;3.30;;;3.00;;
7753;SDS011;3921;42.266;23.122;2022-11-12T16:48:50;3.37;;;2.60;;